N929TT KADS-KSAT
Flight info
| Callsign | N929TT |
|---|---|
| Flight time | 1h 2m |
| Altitude | 24000 |
| Route | JPOOL8 WINDU QERVO3 |
| Aircraft | C25A/L-SDFGRWY/S |
Departure
| Time | 2026-04-27 23:57 |
|---|---|
| Airport | Addison Airport (KADS) |
Arrival
| Time | 2026-04-28 00:59 |
|---|---|
| Airport | San Antonio International Airport (KSAT) |
| Time | Latitude | Longitude | Altitude | Speed | Heading |
|---|---|---|---|---|---|
| 2026-04-27 23:16 | 32.97480 | -96.83152 | 642 ft | 0 kts | 180° |
| 2026-04-27 23:50 | 32.97459 | -96.83164 | 642 ft | 7 kts | 208° |
| 2026-04-27 23:50 | 32.97403 | -96.83185 | 640 ft | 6 kts | 198° |
| 2026-04-27 23:50 | 32.97354 | -96.83236 | 639 ft | 10 kts | 223° |
| 2026-04-27 23:50 | 32.97292 | -96.83305 | 639 ft | 13 kts | 223° |
| 2026-04-27 23:51 | 32.97231 | -96.83375 | 639 ft | 11 kts | 225° |
| 2026-04-27 23:51 | 32.97179 | -96.83434 | 639 ft | 9 kts | 226° |
| 2026-04-27 23:51 | 32.97138 | -96.83485 | 639 ft | 7 kts | 225° |
| 2026-04-27 23:51 | 32.97114 | -96.83531 | 638 ft | 6 kts | 252° |
| 2026-04-27 23:52 | 32.97100 | -96.83577 | 637 ft | 3 kts | 250° |
| 2026-04-27 23:52 | 32.97094 | -96.83600 | 637 ft | 2 kts | 249° |
| 2026-04-27 23:52 | 32.97086 | -96.83635 | 636 ft | 6 kts | 289° |
| 2026-04-27 23:52 | 32.97134 | -96.83665 | 636 ft | 8 kts | 339° |
| 2026-04-27 23:53 | 32.97187 | -96.83688 | 635 ft | 8 kts | 341° |
| 2026-04-27 23:53 | 32.97239 | -96.83710 | 634 ft | 7 kts | 338° |
| 2026-04-27 23:53 | 32.97294 | -96.83735 | 633 ft | 9 kts | 340° |
| 2026-04-27 23:53 | 32.97368 | -96.83768 | 633 ft | 12 kts | 338° |
| 2026-04-27 23:54 | 32.97448 | -96.83803 | 633 ft | 11 kts | 340° |
| 2026-04-27 23:54 | 32.97514 | -96.83831 | 633 ft | 9 kts | 339° |
| 2026-04-27 23:54 | 32.97569 | -96.83857 | 634 ft | 7 kts | 338° |
| 2026-04-27 23:54 | 32.97612 | -96.83874 | 634 ft | 6 kts | 340° |
| 2026-04-27 23:55 | 32.97661 | -96.83895 | 635 ft | 8 kts | 339° |
| 2026-04-27 23:55 | 32.97723 | -96.83923 | 635 ft | 10 kts | 338° |
| 2026-04-27 23:55 | 32.97776 | -96.83950 | 636 ft | 5 kts | 315° |
| 2026-04-27 23:55 | 32.97784 | -96.83999 | 635 ft | 7 kts | 256° |
| 2026-04-27 23:56 | 32.97738 | -96.84025 | 634 ft | 10 kts | 168° |
| 2026-04-27 23:56 | 32.97651 | -96.83992 | 633 ft | 19 kts | 160° |
| 2026-04-27 23:56 | 32.97366 | -96.83869 | 630 ft | 69 kts | 160° |
| 2026-04-27 23:56 | 32.96790 | -96.83617 | 640 ft | 107 kts | 160° |
| 2026-04-27 23:57 | 32.96077 | -96.83295 | 810 ft | 114 kts | 161° |
| 2026-04-27 23:57 | 32.95337 | -96.82945 | 1097 ft | 116 kts | 162° |
| 2026-04-27 23:57 | 32.94582 | -96.82561 | 1387 ft | 119 kts | 144° |
| 2026-04-27 23:57 | 32.94165 | -96.81678 | 1600 ft | 130 kts | 101° |
| 2026-04-27 23:58 | 32.94252 | -96.80637 | 1850 ft | 127 kts | 70° |
| 2026-04-27 23:58 | 32.94746 | -96.79721 | 1913 ft | 136 kts | 54° |
| 2026-04-27 23:58 | 32.95298 | -96.78820 | 2160 ft | 133 kts | 55° |
| 2026-04-27 23:58 | 32.95853 | -96.77953 | 2411 ft | 133 kts | 55° |
| 2026-04-27 23:59 | 32.96465 | -96.76983 | 2505 ft | 151 kts | 54° |
| 2026-04-27 23:59 | 32.97135 | -96.75954 | 2645 ft | 169 kts | 56° |
| 2026-04-27 23:59 | 32.97809 | -96.74841 | 3129 ft | 160 kts | 54° |
| 2026-04-27 23:59 | 32.98497 | -96.73937 | 3751 ft | 142 kts | 49° |
| 2026-04-28 00:00 | 32.99096 | -96.73083 | 4272 ft | 130 kts | 52° |
| 2026-04-28 00:00 | 32.99734 | -96.72115 | 4175 ft | 174 kts | 51° |
| 2026-04-28 00:00 | 33.00531 | -96.70924 | 4334 ft | 195 kts | 51° |
| 2026-04-28 00:00 | 33.01404 | -96.69628 | 4534 ft | 209 kts | 51° |
| 2026-04-28 00:01 | 33.02315 | -96.68278 | 4867 ft | 210 kts | 52° |
| 2026-04-28 00:01 | 33.03213 | -96.66927 | 5197 ft | 206 kts | 50° |
| 2026-04-28 00:01 | 33.04414 | -96.66101 | 5555 ft | 197 kts | 4° |
| 2026-04-28 00:01 | 33.05668 | -96.66438 | 5930 ft | 182 kts | 317° |
| 2026-04-28 00:02 | 33.06281 | -96.67628 | 6318 ft | 169 kts | 271° |
| 2026-04-28 00:02 | 33.06011 | -96.68948 | 6763 ft | 167 kts | 244° |
| 2026-04-28 00:02 | 33.05458 | -96.70167 | 7257 ft | 169 kts | 238° |
| 2026-04-28 00:02 | 33.04841 | -96.71378 | 7779 ft | 173 kts | 239° |
| 2026-04-28 00:03 | 33.04223 | -96.72650 | 8266 ft | 178 kts | 238° |
| 2026-04-28 00:03 | 33.03612 | -96.73912 | 8756 ft | 178 kts | 239° |
| 2026-04-28 00:03 | 33.03006 | -96.75195 | 9148 ft | 176 kts | 238° |
| 2026-04-28 00:03 | 33.02388 | -96.76441 | 9535 ft | 175 kts | 240° |
| 2026-04-28 00:04 | 33.01775 | -96.77686 | 9909 ft | 175 kts | 239° |
| 2026-04-28 00:04 | 33.00537 | -96.80160 | 10433 ft | 175 kts | 240° |
| 2026-04-28 00:04 | 32.99852 | -96.81455 | 10260 ft | 191 kts | 238° |
| 2026-04-28 00:05 | 32.99149 | -96.82799 | 10355 ft | 190 kts | 242° |
| 2026-04-28 00:05 | 32.98391 | -96.84171 | 10195 ft | 203 kts | 233° |
| 2026-04-28 00:05 | 32.97595 | -96.85559 | 10344 ft | 207 kts | 237° |
| 2026-04-28 00:05 | 32.97047 | -96.86531 | 10319 ft | 217 kts | 237° |
| 2026-04-28 00:06 | 32.95869 | -96.88581 | 10327 ft | 232 kts | 236° |
| 2026-04-28 00:06 | 32.94940 | -96.90179 | 10322 ft | 242 kts | 236° |
| 2026-04-28 00:06 | 32.93950 | -96.91856 | 10319 ft | 249 kts | 236° |
| 2026-04-28 00:06 | 32.92944 | -96.93527 | 10418 ft | 251 kts | 235° |
| 2026-04-28 00:07 | 32.91914 | -96.95179 | 10642 ft | 249 kts | 235° |
| 2026-04-28 00:07 | 32.90889 | -96.96864 | 10712 ft | 252 kts | 234° |
| 2026-04-28 00:07 | 32.89826 | -96.98531 | 10903 ft | 250 kts | 234° |
| 2026-04-28 00:07 | 32.88756 | -97.00145 | 11019 ft | 251 kts | 233° |
| 2026-04-28 00:08 | 32.87673 | -97.01794 | 11151 ft | 251 kts | 234° |
| 2026-04-28 00:08 | 32.86606 | -97.03431 | 11292 ft | 251 kts | 234° |
| 2026-04-28 00:08 | 32.85487 | -97.05023 | 11371 ft | 254 kts | 227° |
| 2026-04-28 00:08 | 32.84119 | -97.06342 | 11494 ft | 258 kts | 214° |
| 2026-04-28 00:09 | 32.82318 | -97.06812 | 11595 ft | 274 kts | 184° |
| 2026-04-28 00:09 | 32.80459 | -97.06158 | 11745 ft | 289 kts | 160° |
| 2026-04-28 00:09 | 32.78651 | -97.05149 | 11881 ft | 281 kts | 170° |
| 2026-04-28 00:09 | 32.76771 | -97.04652 | 12023 ft | 275 kts | 178° |
| 2026-04-28 00:10 | 32.74880 | -97.04450 | 12170 ft | 270 kts | 185° |
| 2026-04-28 00:10 | 32.73010 | -97.04436 | 12319 ft | 267 kts | 187° |
| 2026-04-28 00:10 | 32.71173 | -97.04494 | 12616 ft | 260 kts | 189° |
| 2026-04-28 00:10 | 32.69384 | -97.04562 | 12944 ft | 253 kts | 189° |
| 2026-04-28 00:11 | 32.67656 | -97.04624 | 13275 ft | 247 kts | 190° |
| 2026-04-28 00:11 | 32.65954 | -97.04687 | 13608 ft | 242 kts | 190° |
| 2026-04-28 00:11 | 32.64273 | -97.04745 | 13797 ft | 242 kts | 191° |
| 2026-04-28 00:11 | 32.62577 | -97.04798 | 14008 ft | 242 kts | 190° |
| 2026-04-28 00:12 | 32.60877 | -97.04863 | 14132 ft | 245 kts | 190° |
| 2026-04-28 00:12 | 32.59156 | -97.04924 | 14337 ft | 246 kts | 190° |
| 2026-04-28 00:12 | 32.57457 | -97.04975 | 14518 ft | 246 kts | 191° |
| 2026-04-28 00:12 | 32.55731 | -97.05049 | 14661 ft | 248 kts | 190° |
| 2026-04-28 00:13 | 32.54009 | -97.05101 | 14828 ft | 249 kts | 190° |
| 2026-04-28 00:13 | 32.52265 | -97.05146 | 14961 ft | 251 kts | 190° |
| 2026-04-28 00:13 | 32.50512 | -97.05206 | 15144 ft | 251 kts | 191° |
| 2026-04-28 00:13 | 32.48761 | -97.05254 | 15324 ft | 250 kts | 191° |
| 2026-04-28 00:14 | 32.47018 | -97.05316 | 15453 ft | 252 kts | 191° |
| 2026-04-28 00:14 | 32.45383 | -97.05384 | 15582 ft | 253 kts | 191° |
| 2026-04-28 00:14 | 32.43621 | -97.05456 | 15772 ft | 252 kts | 191° |
| 2026-04-28 00:14 | 32.41862 | -97.05504 | 15911 ft | 254 kts | 190° |
| 2026-04-28 00:15 | 32.40068 | -97.05547 | 16014 ft | 256 kts | 191° |
| 2026-04-28 00:15 | 32.38289 | -97.05599 | 16334 ft | 260 kts | 190° |
| 2026-04-28 00:15 | 32.36471 | -97.05649 | 16960 ft | 260 kts | 191° |
| 2026-04-28 00:15 | 32.34675 | -97.05701 | 17498 ft | 262 kts | 191° |
| 2026-04-28 00:16 | 32.32838 | -97.05758 | 18005 ft | 265 kts | 191° |
| 2026-04-28 00:16 | 32.30982 | -97.05817 | 18527 ft | 267 kts | 191° |
| 2026-04-28 00:16 | 32.29134 | -97.05875 | 18996 ft | 270 kts | 191° |
| 2026-04-28 00:16 | 32.27246 | -97.05933 | 19510 ft | 271 kts | 191° |
| 2026-04-28 00:17 | 32.25352 | -97.05994 | 19937 ft | 275 kts | 191° |
| 2026-04-28 00:17 | 32.23436 | -97.06054 | 20447 ft | 276 kts | 191° |
| 2026-04-28 00:17 | 32.21522 | -97.06114 | 20889 ft | 278 kts | 191° |
| 2026-04-28 00:17 | 32.19566 | -97.06176 | 21320 ft | 281 kts | 191° |
| 2026-04-28 00:18 | 32.17615 | -97.06237 | 21762 ft | 282 kts | 191° |
| 2026-04-28 00:18 | 32.15660 | -97.06297 | 22225 ft | 283 kts | 191° |
| 2026-04-28 00:18 | 32.13665 | -97.06361 | 22565 ft | 287 kts | 191° |
| 2026-04-28 00:18 | 32.11678 | -97.06422 | 22969 ft | 290 kts | 192° |
| 2026-04-28 00:19 | 32.09650 | -97.06486 | 23361 ft | 291 kts | 191° |
| 2026-04-28 00:19 | 32.07619 | -97.06549 | 23748 ft | 293 kts | 192° |
| 2026-04-28 00:19 | 32.05542 | -97.06619 | 23851 ft | 305 kts | 192° |
| 2026-04-28 00:19 | 32.03386 | -97.06694 | 23867 ft | 318 kts | 191° |
| 2026-04-28 00:20 | 32.01133 | -97.06768 | 23868 ft | 330 kts | 191° |
| 2026-04-28 00:20 | 31.98791 | -97.06840 | 23867 ft | 340 kts | 191° |
| 2026-04-28 00:20 | 31.96406 | -97.06913 | 23863 ft | 348 kts | 190° |
| 2026-04-28 00:20 | 31.93936 | -97.06987 | 23865 ft | 355 kts | 190° |
| 2026-04-28 00:21 | 31.91436 | -97.07063 | 23865 ft | 362 kts | 190° |
| 2026-04-28 00:21 | 31.88901 | -97.07140 | 23863 ft | 367 kts | 190° |
| 2026-04-28 00:21 | 31.86360 | -97.07217 | 23857 ft | 368 kts | 190° |
| 2026-04-28 00:21 | 31.83802 | -97.07294 | 23861 ft | 368 kts | 189° |
| 2026-04-28 00:22 | 31.81253 | -97.07372 | 23866 ft | 368 kts | 189° |
| 2026-04-28 00:22 | 31.78674 | -97.07452 | 23848 ft | 369 kts | 189° |
| 2026-04-28 00:22 | 31.76124 | -97.07529 | 23853 ft | 368 kts | 190° |
| 2026-04-28 00:22 | 31.73538 | -97.07610 | 23856 ft | 368 kts | 189° |
| 2026-04-28 00:23 | 31.70982 | -97.07689 | 23857 ft | 368 kts | 190° |
| 2026-04-28 00:23 | 31.68431 | -97.07768 | 23856 ft | 368 kts | 190° |
| 2026-04-28 00:23 | 31.65874 | -97.07855 | 23864 ft | 368 kts | 190° |
| 2026-04-28 00:23 | 31.63304 | -97.07933 | 23852 ft | 369 kts | 189° |
| 2026-04-28 00:24 | 31.60740 | -97.08010 | 23855 ft | 369 kts | 189° |
| 2026-04-28 00:24 | 31.58153 | -97.08089 | 23855 ft | 369 kts | 189° |
| 2026-04-28 00:24 | 31.55600 | -97.08167 | 23854 ft | 368 kts | 189° |
| 2026-04-28 00:24 | 31.53062 | -97.08356 | 23856 ft | 363 kts | 194° |
| 2026-04-28 00:25 | 31.50597 | -97.08888 | 23853 ft | 357 kts | 201° |
| 2026-04-28 00:25 | 31.48247 | -97.09787 | 23853 ft | 352 kts | 208° |
| 2026-04-28 00:25 | 31.45988 | -97.10819 | 23849 ft | 352 kts | 208° |
| 2026-04-28 00:25 | 31.43688 | -97.11839 | 23859 ft | 352 kts | 208° |
| 2026-04-28 00:26 | 31.41378 | -97.12811 | 23857 ft | 353 kts | 207° |
| 2026-04-28 00:26 | 31.39053 | -97.13744 | 23858 ft | 353 kts | 206° |
| 2026-04-28 00:26 | 31.36714 | -97.14664 | 23853 ft | 354 kts | 206° |
| 2026-04-28 00:26 | 31.34386 | -97.15575 | 23850 ft | 354 kts | 206° |
| 2026-04-28 00:27 | 31.32055 | -97.16485 | 23854 ft | 355 kts | 206° |
| 2026-04-28 00:27 | 31.29685 | -97.17412 | 23850 ft | 355 kts | 206° |
| 2026-04-28 00:27 | 31.27360 | -97.18319 | 23847 ft | 355 kts | 206° |
| 2026-04-28 00:27 | 31.24995 | -97.19245 | 23843 ft | 355 kts | 206° |
| 2026-04-28 00:28 | 31.22670 | -97.20152 | 23842 ft | 355 kts | 206° |
| 2026-04-28 00:28 | 31.20299 | -97.21077 | 23846 ft | 355 kts | 206° |
| 2026-04-28 00:28 | 31.18042 | -97.21959 | 23846 ft | 355 kts | 206° |
| 2026-04-28 00:28 | 31.15693 | -97.22875 | 23846 ft | 355 kts | 206° |
| 2026-04-28 00:29 | 31.13335 | -97.23795 | 23852 ft | 355 kts | 206° |
| 2026-04-28 00:29 | 31.11006 | -97.24704 | 23855 ft | 355 kts | 206° |
| 2026-04-28 00:29 | 31.08651 | -97.25620 | 23853 ft | 355 kts | 206° |
| 2026-04-28 00:29 | 31.06310 | -97.26530 | 23851 ft | 354 kts | 206° |
| 2026-04-28 00:30 | 31.03971 | -97.27441 | 23856 ft | 354 kts | 205° |
| 2026-04-28 00:30 | 31.01642 | -97.28348 | 23846 ft | 354 kts | 206° |
| 2026-04-28 00:30 | 30.99298 | -97.29256 | 23856 ft | 354 kts | 206° |
| 2026-04-28 00:30 | 30.96981 | -97.30158 | 23852 ft | 354 kts | 206° |
| 2026-04-28 00:31 | 30.94643 | -97.31065 | 23860 ft | 354 kts | 206° |
| 2026-04-28 00:31 | 30.92291 | -97.31979 | 23864 ft | 354 kts | 206° |
| 2026-04-28 00:31 | 30.89969 | -97.32880 | 23863 ft | 354 kts | 205° |
| 2026-04-28 00:31 | 30.87636 | -97.33785 | 23863 ft | 354 kts | 205° |
| 2026-04-28 00:32 | 30.85292 | -97.34692 | 23861 ft | 354 kts | 206° |
| 2026-04-28 00:32 | 30.82953 | -97.35599 | 23864 ft | 354 kts | 206° |
| 2026-04-28 00:32 | 30.80611 | -97.36505 | 23863 ft | 354 kts | 205° |
| 2026-04-28 00:32 | 30.78270 | -97.37410 | 23866 ft | 354 kts | 205° |
| 2026-04-28 00:33 | 30.75937 | -97.38313 | 23868 ft | 353 kts | 206° |
| 2026-04-28 00:33 | 30.73592 | -97.39219 | 23871 ft | 354 kts | 206° |
| 2026-04-28 00:33 | 30.71283 | -97.40112 | 23869 ft | 354 kts | 205° |
| 2026-04-28 00:33 | 30.68954 | -97.41011 | 23869 ft | 354 kts | 206° |
| 2026-04-28 00:34 | 30.66613 | -97.41915 | 23870 ft | 354 kts | 206° |
| 2026-04-28 00:34 | 30.64264 | -97.42821 | 23875 ft | 354 kts | 206° |
| 2026-04-28 00:34 | 30.61935 | -97.43720 | 23878 ft | 354 kts | 206° |
| 2026-04-28 00:34 | 30.59605 | -97.44617 | 23875 ft | 354 kts | 205° |
| 2026-04-28 00:35 | 30.57251 | -97.45523 | 23876 ft | 354 kts | 205° |
| 2026-04-28 00:35 | 30.54922 | -97.46420 | 23880 ft | 353 kts | 205° |
| 2026-04-28 00:35 | 30.52573 | -97.47324 | 23875 ft | 353 kts | 205° |
| 2026-04-28 00:35 | 30.50254 | -97.48216 | 23876 ft | 353 kts | 205° |
| 2026-04-28 00:36 | 30.47928 | -97.49110 | 23877 ft | 353 kts | 205° |
| 2026-04-28 00:36 | 30.45582 | -97.50011 | 23873 ft | 353 kts | 205° |
| 2026-04-28 00:36 | 30.43252 | -97.50906 | 23875 ft | 353 kts | 205° |
| 2026-04-28 00:36 | 30.40924 | -97.51799 | 23878 ft | 353 kts | 205° |
| 2026-04-28 00:37 | 30.38584 | -97.52734 | 23873 ft | 351 kts | 207° |
| 2026-04-28 00:37 | 30.36358 | -97.53846 | 23878 ft | 347 kts | 212° |
| 2026-04-28 00:37 | 30.34255 | -97.55192 | 23876 ft | 344 kts | 218° |
| 2026-04-28 00:37 | 30.32252 | -97.56672 | 23874 ft | 343 kts | 219° |
| 2026-04-28 00:38 | 30.30243 | -97.58160 | 23848 ft | 344 kts | 218° |
| 2026-04-28 00:38 | 30.28195 | -97.59637 | 23666 ft | 349 kts | 218° |
| 2026-04-28 00:38 | 30.26101 | -97.61114 | 23365 ft | 356 kts | 217° |
| 2026-04-28 00:38 | 30.23958 | -97.62600 | 23034 ft | 357 kts | 216° |
| 2026-04-28 00:39 | 30.21831 | -97.64066 | 22702 ft | 356 kts | 216° |
| 2026-04-28 00:39 | 30.19728 | -97.65516 | 22380 ft | 356 kts | 216° |
| 2026-04-28 00:39 | 30.17592 | -97.66988 | 22044 ft | 354 kts | 216° |
| 2026-04-28 00:39 | 30.15476 | -97.68446 | 21714 ft | 353 kts | 215° |
| 2026-04-28 00:40 | 30.13366 | -97.69901 | 21384 ft | 352 kts | 215° |
| 2026-04-28 00:40 | 30.11293 | -97.71330 | 21063 ft | 352 kts | 215° |
| 2026-04-28 00:40 | 30.09204 | -97.72770 | 20731 ft | 345 kts | 215° |
| 2026-04-28 00:40 | 30.07152 | -97.74182 | 20397 ft | 338 kts | 215° |
| 2026-04-28 00:41 | 30.05161 | -97.75552 | 20072 ft | 333 kts | 215° |
| 2026-04-28 00:41 | 30.03179 | -97.76915 | 19743 ft | 329 kts | 215° |
| 2026-04-28 00:41 | 30.01219 | -97.78263 | 19417 ft | 326 kts | 215° |
| 2026-04-28 00:41 | 29.99287 | -97.79590 | 19093 ft | 323 kts | 215° |
| 2026-04-28 00:42 | 29.97352 | -97.80919 | 18766 ft | 321 kts | 214° |
| 2026-04-28 00:42 | 29.95459 | -97.82220 | 18446 ft | 315 kts | 214° |
| 2026-04-28 00:42 | 29.93610 | -97.83488 | 18069 ft | 308 kts | 214° |
| 2026-04-28 00:42 | 29.91793 | -97.84735 | 17651 ft | 302 kts | 214° |
| 2026-04-28 00:43 | 29.90060 | -97.86071 | 17209 ft | 293 kts | 223° |
| 2026-04-28 00:43 | 29.88762 | -97.87823 | 16776 ft | 287 kts | 239° |
| 2026-04-28 00:43 | 29.88015 | -97.89906 | 16359 ft | 283 kts | 253° |
| 2026-04-28 00:43 | 29.87529 | -97.92017 | 15952 ft | 281 kts | 254° |
| 2026-04-28 00:44 | 29.87002 | -97.94175 | 15530 ft | 279 kts | 252° |
| 2026-04-28 00:44 | 29.86408 | -97.96276 | 15115 ft | 278 kts | 250° |
| 2026-04-28 00:44 | 29.85749 | -97.98363 | 14695 ft | 277 kts | 248° |
| 2026-04-28 00:44 | 29.85062 | -98.00437 | 14279 ft | 276 kts | 248° |
| 2026-04-28 00:45 | 29.84378 | -98.02473 | 13870 ft | 275 kts | 247° |
| 2026-04-28 00:45 | 29.83687 | -98.04527 | 13454 ft | 273 kts | 248° |
| 2026-04-28 00:45 | 29.83019 | -98.06528 | 13048 ft | 271 kts | 248° |
| 2026-04-28 00:45 | 29.82346 | -98.08545 | 12641 ft | 270 kts | 248° |
| 2026-04-28 00:46 | 29.81674 | -98.10566 | 12233 ft | 269 kts | 248° |
| 2026-04-28 00:46 | 29.81005 | -98.12569 | 11828 ft | 268 kts | 248° |
| 2026-04-28 00:46 | 29.80342 | -98.14555 | 11423 ft | 268 kts | 248° |
| 2026-04-28 00:46 | 29.79672 | -98.16570 | 11008 ft | 268 kts | 248° |
| 2026-04-28 00:47 | 29.79023 | -98.18542 | 10610 ft | 268 kts | 248° |
| 2026-04-28 00:47 | 29.78358 | -98.20541 | 10204 ft | 268 kts | 248° |
| 2026-04-28 00:47 | 29.77687 | -98.22552 | 9807 ft | 267 kts | 248° |
| 2026-04-28 00:47 | 29.77026 | -98.24533 | 9412 ft | 268 kts | 249° |
| 2026-04-28 00:48 | 29.76363 | -98.26517 | 9004 ft | 267 kts | 249° |
| 2026-04-28 00:48 | 29.75695 | -98.28519 | 8609 ft | 267 kts | 248° |
| 2026-04-28 00:48 | 29.75028 | -98.30516 | 8312 ft | 267 kts | 248° |
| 2026-04-28 00:48 | 29.74365 | -98.32500 | 8000 ft | 266 kts | 249° |
| 2026-04-28 00:49 | 29.73707 | -98.34468 | 7674 ft | 265 kts | 249° |
| 2026-04-28 00:49 | 29.73045 | -98.36443 | 7330 ft | 265 kts | 249° |
| 2026-04-28 00:49 | 29.72399 | -98.38421 | 6906 ft | 264 kts | 250° |
| 2026-04-28 00:49 | 29.71773 | -98.40374 | 6479 ft | 261 kts | 250° |
| 2026-04-28 00:50 | 29.71156 | -98.42293 | 6176 ft | 249 kts | 250° |
| 2026-04-28 00:50 | 29.70723 | -98.44153 | 6106 ft | 229 kts | 262° |
| 2026-04-28 00:50 | 29.70704 | -98.45899 | 6051 ft | 211 kts | 274° |
| 2026-04-28 00:50 | 29.70863 | -98.47518 | 6022 ft | 196 kts | 275° |
| 2026-04-28 00:51 | 29.71009 | -98.49030 | 6003 ft | 188 kts | 272° |
| 2026-04-28 00:51 | 29.71110 | -98.50498 | 5987 ft | 180 kts | 270° |
| 2026-04-28 00:51 | 29.71181 | -98.51922 | 6016 ft | 175 kts | 269° |
| 2026-04-28 00:51 | 29.71232 | -98.53289 | 6024 ft | 171 kts | 268° |
| 2026-04-28 00:52 | 29.71277 | -98.54672 | 5866 ft | 178 kts | 267° |
| 2026-04-28 00:52 | 29.71317 | -98.56133 | 5650 ft | 188 kts | 268° |
| 2026-04-28 00:52 | 29.71364 | -98.57667 | 5415 ft | 194 kts | 257° |
| 2026-04-28 00:52 | 29.70660 | -98.58934 | 5193 ft | 194 kts | 214° |
| 2026-04-28 00:53 | 29.69350 | -98.59312 | 4965 ft | 198 kts | 174° |
| 2026-04-28 00:53 | 29.68006 | -98.58946 | 4753 ft | 203 kts | 163° |
| 2026-04-28 00:53 | 29.66612 | -98.58679 | 4497 ft | 208 kts | 187° |
| 2026-04-28 00:53 | 29.65264 | -98.59309 | 4286 ft | 212 kts | 208° |
| 2026-04-28 00:54 | 29.63991 | -98.60229 | 4052 ft | 215 kts | 212° |
| 2026-04-28 00:54 | 29.62797 | -98.61178 | 3922 ft | 201 kts | 213° |
| 2026-04-28 00:54 | 29.61598 | -98.61898 | 3645 ft | 191 kts | 188° |
| 2026-04-28 00:54 | 29.60362 | -98.61565 | 3414 ft | 182 kts | 146° |
| 2026-04-28 00:55 | 29.59708 | -98.60368 | 3192 ft | 181 kts | 109° |
| 2026-04-28 00:55 | 29.59473 | -98.58974 | 2986 ft | 175 kts | 103° |
| 2026-04-28 00:55 | 29.59326 | -98.57694 | 2795 ft | 154 kts | 102° |
| 2026-04-28 00:55 | 29.59212 | -98.56506 | 2539 ft | 146 kts | 102° |
| 2026-04-28 00:56 | 29.59109 | -98.55399 | 2295 ft | 140 kts | 102° |
| 2026-04-28 00:56 | 29.58716 | -98.54491 | 2184 ft | 120 kts | 132° |
| 2026-04-28 00:56 | 29.58281 | -98.53799 | 2126 ft | 101 kts | 131° |
| 2026-04-28 00:56 | 29.57869 | -98.53209 | 2081 ft | 91 kts | 129° |
| 2026-04-28 00:57 | 29.57444 | -98.52633 | 1895 ft | 95 kts | 132° |
| 2026-04-28 00:57 | 29.57012 | -98.52075 | 1748 ft | 95 kts | 130° |
| 2026-04-28 00:57 | 29.56566 | -98.51518 | 1602 ft | 95 kts | 131° |
| 2026-04-28 00:57 | 29.56122 | -98.50957 | 1479 ft | 94 kts | 130° |
| 2026-04-28 00:58 | 29.55686 | -98.50382 | 1322 ft | 96 kts | 128° |
| 2026-04-28 00:58 | 29.55251 | -98.49806 | 1180 ft | 96 kts | 130° |
| 2026-04-28 00:58 | 29.54795 | -98.49222 | 1022 ft | 97 kts | 130° |
| 2026-04-28 00:58 | 29.54349 | -98.48647 | 865 ft | 98 kts | 130° |
| 2026-04-28 00:59 | 29.53917 | -98.48092 | 803 ft | 87 kts | 130° |
| 2026-04-28 00:59 | 29.53564 | -98.47634 | 793 ft | 65 kts | 129° |
| 2026-04-28 00:59 | 29.53345 | -98.47354 | 791 ft | 23 kts | 133° |
| 2026-04-28 00:59 | 29.53271 | -98.47306 | 791 ft | 6 kts | 165° |
| 2026-04-28 01:00 | 29.53231 | -98.47293 | 790 ft | 5 kts | 165° |
| 2026-04-28 01:00 | 29.53195 | -98.47283 | 790 ft | 5 kts | 165° |
| 2026-04-28 01:00 | 29.53147 | -98.47272 | 790 ft | 8 kts | 217° |
| 2026-04-28 01:00 | 29.53173 | -98.47327 | 791 ft | 9 kts | 312° |
| 2026-04-28 01:01 | 29.53224 | -98.47393 | 791 ft | 12 kts | 310° |
| 2026-04-28 01:01 | 29.53286 | -98.47472 | 792 ft | 13 kts | 315° |
| 2026-04-28 01:01 | 29.53345 | -98.47551 | 792 ft | 9 kts | 278° |
| 2026-04-28 01:01 | 29.53314 | -98.47620 | 794 ft | 10 kts | 265° |
| 2026-04-28 01:02 | 29.53348 | -98.47694 | 795 ft | 11 kts | 310° |
| 2026-04-28 01:02 | 29.53405 | -98.47771 | 796 ft | 12 kts | 311° |
| 2026-04-28 01:02 | 29.53453 | -98.47829 | 798 ft | 8 kts | 300° |
| 2026-04-28 01:02 | 29.53430 | -98.47872 | 798 ft | 5 kts | 203° |
| 2026-04-28 01:03 | 29.53399 | -98.47867 | 798 ft | 4 kts | 173° |
| 2026-04-28 01:03 | 29.53364 | -98.47886 | 799 ft | 4 kts | 231° |
| 2026-04-28 01:03 | 29.53355 | -98.47913 | 800 ft | 2 kts | 274° |
| 2026-04-28 01:03 | 29.53365 | -98.47926 | 800 ft | 0 kts | 319° |
| 2026-04-28 01:04 | 29.53365 | -98.47927 | 800 ft | 0 kts | 319° |